Rechercher aéroport 
image banner adimage banner adimage banner ad
image banner ad

A32 - Butte Valley

Situé à Dorris, United States

ICAO - A32, IATA -

Données fournies par Airmate  

Information générale

Coordonnées: N41°53'14" W121°58'32"
Élévation : 4243 feet MSL.
Variation magnétique : 18° East
Voir autres Aéroports à California

Données opérationnelles

Special qualification required
Heure actuelle UTC:
Heure actuelle locale:
Météo à : KLMT - Crater Lake-Klamath Rgnl ( 36 km )
METAR: KLMT 251553Z VRB04KT 9SM FU CLR 21/11 A3014 RMK AO2 SLP159 T02060106
TAF: KLMT 251138Z 2512/2612 28006KT P6SM SKC FM252300 31012KT 5SM FU BKN150 FM260400 32009KT P6SM SCT150
Voir NOTAMs / SUP AIP / TFR affectant cet aéroport [VIEW]
Fréquences de communication: [VIEW]

Pistes:

Identifiant RWYQFULongueur (ft)Largeur (ft)SurfaceLDA (ft)
16179°430060ASPH
34359°430060ASPH

Coordonnées de l'aéroport

Adresse: Dorris United States

Vue satellite de A32